sensor_id;sensor_type;location;lat;lon;timestamp;P1;durP1;ratioP1;P2;durP2;ratioP2
61373;SDS011;47242;48.158;-1.586;2023-02-28T05:30:34;9.50;;;7.05;;
61373;SDS011;47242;48.158;-1.586;2023-02-28T05:33:03;9.13;;;5.53;;
61373;SDS011;47242;48.158;-1.586;2023-02-28T05:35:29;11.52;;;6.07;;
61373;SDS011;47242;48.158;-1.586;2023-02-28T05:37:55;18.45;;;8.02;;
61373;SDS011;47242;48.158;-1.586;2023-02-28T05:40:20;6.85;;;5.97;;
61373;SDS011;47242;48.158;-1.586;2023-02-28T05:42:46;10.02;;;6.68;;
61373;SDS011;47242;48.158;-1.586;2023-02-28T05:45:12;14.05;;;6.85;;
61373;SDS011;47242;48.158;-1.586;2023-02-28T05:47:38;9.27;;;6.88;;
61373;SDS011;47242;48.158;-1.586;2023-02-28T05:50:04;6.53;;;5.93;;
61373;SDS011;47242;48.158;-1.586;2023-02-28T05:52:30;7.57;;;5.93;;
61373;SDS011;47242;48.158;-1.586;2023-02-28T05:54:56;10.50;;;7.10;;
61373;SDS011;47242;48.158;-1.586;2023-02-28T05:57:22;11.77;;;6.88;;
61373;SDS011;47242;48.158;-1.586;2023-02-28T05:59:48;7.80;;;6.35;;
61373;SDS011;47242;48.158;-1.586;2023-02-28T06:02:14;11.65;;;6.65;;
61373;SDS011;47242;48.158;-1.586;2023-02-28T06:04:41;5.93;;;4.82;;
61373;SDS011;47242;48.158;-1.586;2023-02-28T06:07:10;8.50;;;6.65;;
61373;SDS011;47242;48.158;-1.586;2023-02-28T06:09:36;10.38;;;6.43;;
61373;SDS011;47242;48.158;-1.586;2023-02-28T06:12:03;11.80;;;7.68;;
61373;SDS011;47242;48.158;-1.586;2023-02-28T06:14:32;15.70;;;9.20;;
61373;SDS011;47242;48.158;-1.586;2023-02-28T06:16:59;8.35;;;7.30;;
61373;SDS011;47242;48.158;-1.586;2023-02-28T06:19:25;11.85;;;8.52;;
61373;SDS011;47242;48.158;-1.586;2023-02-28T06:21:52;11.07;;;7.25;;
61373;SDS011;47242;48.158;-1.586;2023-02-28T06:24:21;11.98;;;6.80;;
61373;SDS011;47242;48.158;-1.586;2023-02-28T06:26:49;12.88;;;7.60;;
61373;SDS011;47242;48.158;-1.586;2023-02-28T06:29:16;10.55;;;6.90;;
61373;SDS011;47242;48.158;-1.586;2023-02-28T06:31:43;15.43;;;8.73;;
61373;SDS011;47242;48.158;-1.586;2023-02-28T06:34:12;10.52;;;7.45;;
61373;SDS011;47242;48.158;-1.586;2023-02-28T06:36:39;12.20;;;8.13;;
61373;SDS011;47242;48.158;-1.586;2023-02-28T06:39:06;12.45;;;8.80;;
61373;SDS011;47242;48.158;-1.586;2023-02-28T06:41:32;22.50;;;7.78;;
61373;SDS011;47242;48.158;-1.586;2023-02-28T06:44:16;16.13;;;8.90;;
61373;SDS011;47242;48.158;-1.586;2023-02-28T06:46:43;15.60;;;8.80;;
61373;SDS011;47242;48.158;-1.586;2023-02-28T06:49:10;12.27;;;7.63;;
61373;SDS011;47242;48.158;-1.586;2023-02-28T06:51:40;11.13;;;7.85;;
61373;SDS011;47242;48.158;-1.586;2023-02-28T06:54:06;11.82;;;7.85;;
61373;SDS011;47242;48.158;-1.586;2023-02-28T06:56:35;13.60;;;8.15;;
61373;SDS011;47242;48.158;-1.586;2023-02-28T06:59:01;11.60;;;8.55;;
61373;SDS011;47242;48.158;-1.586;2023-02-28T07:01:28;13.13;;;8.73;;
61373;SDS011;47242;48.158;-1.586;2023-02-28T07:03:57;15.00;;;8.73;;
61373;SDS011;47242;48.158;-1.586;2023-02-28T07:06:23;17.80;;;8.85;;
61373;SDS011;47242;48.158;-1.586;2023-02-28T07:08:49;9.80;;;6.75;;
61373;SDS011;47242;48.158;-1.586;2023-02-28T07:11:20;18.13;;;9.07;;
61373;SDS011;47242;48.158;-1.586;2023-02-28T07:13:48;18.65;;;9.77;;
61373;SDS011;47242;48.158;-1.586;2023-02-28T07:16:14;14.05;;;10.70;;
61373;SDS011;47242;48.158;-1.586;2023-02-28T07:18:40;14.27;;;9.75;;
61373;SDS011;47242;48.158;-1.586;2023-02-28T07:21:06;11.65;;;8.20;;
61373;SDS011;47242;48.158;-1.586;2023-02-28T07:23:33;14.65;;;9.40;;
61373;SDS011;47242;48.158;-1.586;2023-02-28T07:25:59;16.95;;;10.93;;
61373;SDS011;47242;48.158;-1.586;2023-02-28T07:28:25;19.02;;;9.98;;
61373;SDS011;47242;48.158;-1.586;2023-02-28T07:30:51;16.13;;;9.70;;
61373;SDS011;47242;48.158;-1.586;2023-02-28T07:33:16;17.35;;;10.23;;
61373;SDS011;47242;48.158;-1.586;2023-02-28T07:35:42;18.20;;;9.43;;
61373;SDS011;47242;48.158;-1.586;2023-02-28T07:38:08;16.83;;;10.63;;
61373;SDS011;47242;48.158;-1.586;2023-02-28T07:40:34;15.77;;;9.65;;
61373;SDS011;47242;48.158;-1.586;2023-02-28T07:43:01;20.40;;;10.48;;
61373;SDS011;47242;48.158;-1.586;2023-02-28T07:45:28;13.80;;;8.25;;
61373;SDS011;47242;48.158;-1.586;2023-02-28T07:47:55;16.05;;;10.75;;
61373;SDS011;47242;48.158;-1.586;2023-02-28T07:50:21;24.45;;;13.20;;
61373;SDS011;47242;48.158;-1.586;2023-02-28T07:52:47;22.90;;;13.00;;
61373;SDS011;47242;48.158;-1.586;2023-02-28T07:55:12;19.27;;;10.95;;
61373;SDS011;47242;48.158;-1.586;2023-02-28T07:57:38;17.50;;;10.63;;
61373;SDS011;47242;48.158;-1.586;2023-02-28T08:00:05;18.13;;;11.75;;
61373;SDS011;47242;48.158;-1.586;2023-02-28T08:02:32;15.63;;;9.85;;
61373;SDS011;47242;48.158;-1.586;2023-02-28T08:04:58;17.58;;;10.38;;
61373;SDS011;47242;48.158;-1.586;2023-02-28T08:07:25;14.52;;;10.10;;
61373;SDS011;47242;48.158;-1.586;2023-02-28T08:09:50;16.88;;;11.18;;
61373;SDS011;47242;48.158;-1.586;2023-02-28T08:12:16;18.20;;;11.75;;
61373;SDS011;47242;48.158;-1.586;2023-02-28T08:14:41;17.13;;;10.60;;
61373;SDS011;47242;48.158;-1.586;2023-02-28T08:17:07;16.80;;;11.48;;
61373;SDS011;47242;48.158;-1.586;2023-02-28T08:19:34;17.75;;;11.15;;
61373;SDS011;47242;48.158;-1.586;2023-02-28T08:22:00;19.88;;;11.85;;
61373;SDS011;47242;48.158;-1.586;2023-02-28T08:24:26;19.10;;;12.80;;
61373;SDS011;47242;48.158;-1.586;2023-02-28T08:26:51;19.98;;;13.52;;
61373;SDS011;47242;48.158;-1.586;2023-02-28T08:29:17;19.00;;;12.43;;
61373;SDS011;47242;48.158;-1.586;2023-02-28T08:31:43;17.70;;;10.45;;
61373;SDS011;47242;48.158;-1.586;2023-02-28T08:34:09;14.90;;;10.50;;
61373;SDS011;47242;48.158;-1.586;2023-02-28T08:36:37;15.35;;;11.50;;
61373;SDS011;47242;48.158;-1.586;2023-02-28T08:39:04;16.90;;;10.88;;
61373;SDS011;47242;48.158;-1.586;2023-02-28T08:41:30;17.50;;;11.27;;
61373;SDS011;47242;48.158;-1.586;2023-02-28T08:43:56;16.08;;;10.70;;
61373;SDS011;47242;48.158;-1.586;2023-02-28T08:46:22;18.63;;;11.82;;
61373;SDS011;47242;48.158;-1.586;2023-02-28T08:48:51;18.58;;;11.60;;
61373;SDS011;47242;48.158;-1.586;2023-02-28T08:51:18;14.40;;;10.88;;
61373;SDS011;47242;48.158;-1.586;2023-02-28T08:53:47;15.55;;;11.95;;
61373;SDS011;47242;48.158;-1.586;2023-02-28T08:56:14;17.70;;;11.25;;
61373;SDS011;47242;48.158;-1.586;2023-02-28T08:58:41;15.38;;;10.82;;
61373;SDS011;47242;48.158;-1.586;2023-02-28T09:01:18;14.23;;;10.05;;
61373;SDS011;47242;48.158;-1.586;2023-02-28T09:03:46;17.35;;;11.70;;
61373;SDS011;47242;48.158;-1.586;2023-02-28T09:06:13;15.60;;;10.85;;
61373;SDS011;47242;48.158;-1.586;2023-02-28T09:08:39;15.20;;;10.02;;
61373;SDS011;47242;48.158;-1.586;2023-02-28T09:11:06;13.27;;;8.95;;
61373;SDS011;47242;48.158;-1.586;2023-02-28T09:13:32;16.33;;;10.05;;
61373;SDS011;47242;48.158;-1.586;2023-02-28T09:15:59;14.68;;;10.10;;
61373;SDS011;47242;48.158;-1.586;2023-02-28T09:18:26;11.73;;;8.77;;
61373;SDS011;47242;48.158;-1.586;2023-02-28T09:20:52;13.18;;;9.18;;
61373;SDS011;47242;48.158;-1.586;2023-02-28T09:23:19;15.18;;;10.65;;
61373;SDS011;47242;48.158;-1.586;2023-02-28T09:25:49;11.93;;;8.40;;
61373;SDS011;47242;48.158;-1.586;2023-02-28T09:28:16;12.50;;;8.82;;
61373;SDS011;47242;48.158;-1.586;2023-02-28T09:30:47;10.63;;;8.13;;
61373;SDS011;47242;48.158;-1.586;2023-02-28T09:33:14;12.05;;;9.07;;
61373;SDS011;47242;48.158;-1.586;2023-02-28T09:35:40;10.52;;;8.25;;
61373;SDS011;47242;48.158;-1.586;2023-02-28T09:38:07;10.00;;;7.45;;
61373;SDS011;47242;48.158;-1.586;2023-02-28T09:40:45;9.48;;;7.63;;
61373;SDS011;47242;48.158;-1.586;2023-02-28T09:43:15;8.27;;;6.95;;
61373;SDS011;47242;48.158;-1.586;2023-02-28T09:45:42;9.23;;;7.22;;
61373;SDS011;47242;48.158;-1.586;2023-02-28T09:48:18;8.70;;;7.38;;
61373;SDS011;47242;48.158;-1.586;2023-02-28T09:53:35;8.18;;;6.82;;
61373;SDS011;47242;48.158;-1.586;2023-02-28T09:56:05;8.68;;;6.50;;
61373;SDS011;47242;48.158;-1.586;2023-02-28T10:01:37;8.43;;;6.32;;
61373;SDS011;47242;48.158;-1.586;2023-02-28T10:09:44;8.48;;;6.97;;
61373;SDS011;47242;48.158;-1.586;2023-02-28T10:12:13;8.55;;;6.80;;
61373;SDS011;47242;48.158;-1.586;2023-02-28T10:14:44;8.57;;;6.50;;
61373;SDS011;47242;48.158;-1.586;2023-02-28T10:17:13;9.52;;;6.32;;
61373;SDS011;47242;48.158;-1.586;2023-02-28T10:22:16;7.95;;;4.93;;
61373;SDS011;47242;48.158;-1.586;2023-02-28T10:24:49;10.57;;;6.70;;
61373;SDS011;47242;48.158;-1.586;2023-02-28T10:27:18;8.68;;;5.68;;
61373;SDS011;47242;48.158;-1.586;2023-02-28T10:29:58;8.05;;;5.07;;
61373;SDS011;47242;48.158;-1.586;2023-02-28T10:32:26;9.98;;;5.97;;
61373;SDS011;47242;48.158;-1.586;2023-02-28T10:35:00;10.35;;;6.13;;
61373;SDS011;47242;48.158;-1.586;2023-02-28T10:37:27;9.98;;;5.47;;
61373;SDS011;47242;48.158;-1.586;2023-02-28T10:39:53;8.68;;;5.45;;
61373;SDS011;47242;48.158;-1.586;2023-02-28T10:42:23;6.22;;;4.35;;
61373;SDS011;47242;48.158;-1.586;2023-02-28T10:45:09;7.32;;;5.00;;
61373;SDS011;47242;48.158;-1.586;2023-02-28T10:47:48;6.78;;;4.57;;
61373;SDS011;47242;48.158;-1.586;2023-02-28T10:51:02;5.07;;;3.50;;
61373;SDS011;47242;48.158;-1.586;2023-02-28T10:56:02;8.93;;;3.90;;
61373;SDS011;47242;48.158;-1.586;2023-02-28T10:58:40;7.63;;;5.07;;
61373;SDS011;47242;48.158;-1.586;2023-02-28T11:01:18;5.50;;;3.55;;
61373;SDS011;47242;48.158;-1.586;2023-02-28T11:09:50;6.18;;;3.85;;
61373;SDS011;47242;48.158;-1.586;2023-02-28T11:14:55;4.72;;;3.03;;
61373;SDS011;47242;48.158;-1.586;2023-02-28T11:17:26;4.25;;;3.72;;
61373;SDS011;47242;48.158;-1.586;2023-02-28T11:19:58;3.40;;;2.80;;
61373;SDS011;47242;48.158;-1.586;2023-02-28T11:22:32;4.00;;;3.45;;
61373;SDS011;47242;48.158;-1.586;2023-02-28T11:25:06;6.38;;;3.97;;
61373;SDS011;47242;48.158;-1.586;2023-02-28T11:28:21;4.50;;;3.75;;
61373;SDS011;47242;48.158;-1.586;2023-02-28T11:33:26;7.40;;;4.78;;
61373;SDS011;47242;48.158;-1.586;2023-02-28T11:36:00;6.28;;;3.63;;
61373;SDS011;47242;48.158;-1.586;2023-02-28T11:38:34;7.03;;;4.07;;
61373;SDS011;47242;48.158;-1.586;2023-02-28T11:41:17;5.85;;;3.40;;
61373;SDS011;47242;48.158;-1.586;2023-02-28T11:46:43;4.95;;;3.90;;
61373;SDS011;47242;48.158;-1.586;2023-02-28T11:52:20;6.05;;;3.92;;
61373;SDS011;47242;48.158;-1.586;2023-02-28T11:58:14;6.13;;;4.30;;
61373;SDS011;47242;48.158;-1.586;2023-02-28T12:00:56;6.05;;;3.35;;
61373;SDS011;47242;48.158;-1.586;2023-02-28T12:03:44;4.65;;;3.88;;
61373;SDS011;47242;48.158;-1.586;2023-02-28T12:22:53;6.72;;;3.70;;
61373;SDS011;47242;48.158;-1.586;2023-02-28T12:28:01;5.97;;;3.10;;
61373;SDS011;47242;48.158;-1.586;2023-02-28T12:30:31;4.10;;;2.85;;
61373;SDS011;47242;48.158;-1.586;2023-02-28T12:33:06;5.70;;;3.45;;
61373;SDS011;47242;48.158;-1.586;2023-02-28T12:35:41;6.18;;;4.13;;
61373;SDS011;47242;48.158;-1.586;2023-02-28T12:38:22;4.88;;;2.88;;
61373;SDS011;47242;48.158;-1.586;2023-02-28T12:43:28;5.40;;;3.53;;
61373;SDS011;47242;48.158;-1.586;2023-02-28T12:48:46;3.47;;;2.38;;
61373;SDS011;47242;48.158;-1.586;2023-02-28T12:51:16;4.68;;;2.70;;
61373;SDS011;47242;48.158;-1.586;2023-02-28T12:53:58;5.10;;;3.35;;
61373;SDS011;47242;48.158;-1.586;2023-02-28T12:59:26;4.75;;;2.97;;
61373;SDS011;47242;48.158;-1.586;2023-02-28T13:07:40;6.15;;;3.20;;
61373;SDS011;47242;48.158;-1.586;2023-02-28T13:10:16;6.55;;;3.35;;
61373;SDS011;47242;48.158;-1.586;2023-02-28T13:12:50;7.68;;;3.30;;
61373;SDS011;47242;48.158;-1.586;2023-02-28T13:17:48;5.90;;;3.83;;
61373;SDS011;47242;48.158;-1.586;2023-02-28T13:22:46;6.22;;;3.85;;
61373;SDS011;47242;48.158;-1.586;2023-02-28T13:28:09;3.65;;;3.15;;
61373;SDS011;47242;48.158;-1.586;2023-02-28T13:38:34;6.28;;;2.90;;
61373;SDS011;47242;48.158;-1.586;2023-02-28T13:49:28;8.82;;;4.22;;
61373;SDS011;47242;48.158;-1.586;2023-02-28T13:52:29;13.13;;;6.43;;
61373;SDS011;47242;48.158;-1.586;2023-02-28T14:03:14;6.43;;;3.95;;
61373;SDS011;47242;48.158;-1.586;2023-02-28T14:09:25;9.77;;;6.20;;
61373;SDS011;47242;48.158;-1.586;2023-02-28T14:11:51;8.10;;;4.23;;
61373;SDS011;47242;48.158;-1.586;2023-02-28T14:17:02;4.78;;;3.45;;
61373;SDS011;47242;48.158;-1.586;2023-02-28T14:19:30;3.42;;;2.78;;
61373;SDS011;47242;48.158;-1.586;2023-02-28T14:33:23;5.63;;;3.05;;
61373;SDS011;47242;48.158;-1.586;2023-02-28T14:38:42;5.90;;;4.25;;
61373;SDS011;47242;48.158;-1.586;2023-02-28T14:41:18;5.15;;;3.97;;
61373;SDS011;47242;48.158;-1.586;2023-02-28T14:43:47;5.50;;;4.10;;
61373;SDS011;47242;48.158;-1.586;2023-02-28T14:46:18;6.57;;;4.10;;
61373;SDS011;47242;48.158;-1.586;2023-02-28T14:48:46;6.43;;;3.85;;
61373;SDS011;47242;48.158;-1.586;2023-02-28T14:51:13;4.38;;;3.47;;
61373;SDS011;47242;48.158;-1.586;2023-02-28T14:53:46;6.93;;;5.30;;
61373;SDS011;47242;48.158;-1.586;2023-02-28T14:56:20;7.47;;;5.22;;
61373;SDS011;47242;48.158;-1.586;2023-02-28T14:58:53;6.55;;;4.45;;
61373;SDS011;47242;48.158;-1.586;2023-02-28T15:01:21;7.80;;;4.70;;
61373;SDS011;47242;48.158;-1.586;2023-02-28T15:03:48;6.13;;;4.55;;
61373;SDS011;47242;48.158;-1.586;2023-02-28T15:06:23;6.15;;;4.57;;
61373;SDS011;47242;48.158;-1.586;2023-02-28T15:09:06;13.63;;;5.72;;
61373;SDS011;47242;48.158;-1.586;2023-02-28T15:11:50;4.70;;;3.78;;
61373;SDS011;47242;48.158;-1.586;2023-02-28T15:14:19;10.15;;;6.15;;
61373;SDS011;47242;48.158;-1.586;2023-02-28T15:16:48;7.13;;;5.22;;
61373;SDS011;47242;48.158;-1.586;2023-02-28T15:19:25;7.72;;;5.00;;
61373;SDS011;47242;48.158;-1.586;2023-02-28T15:21:59;9.02;;;5.88;;
61373;SDS011;47242;48.158;-1.586;2023-02-28T15:24:37;9.40;;;5.15;;
61373;SDS011;47242;48.158;-1.586;2023-02-28T15:27:12;6.60;;;5.35;;
61373;SDS011;47242;48.158;-1.586;2023-02-28T15:29:46;7.65;;;4.78;;
61373;SDS011;47242;48.158;-1.586;2023-02-28T15:34:58;10.07;;;6.18;;
61373;SDS011;47242;48.158;-1.586;2023-02-28T15:37:50;9.43;;;6.53;;
61373;SDS011;47242;48.158;-1.586;2023-02-28T15:43:04;12.43;;;7.43;;
61373;SDS011;47242;48.158;-1.586;2023-02-28T15:48:22;17.40;;;7.50;;
61373;SDS011;47242;48.158;-1.586;2023-02-28T15:53:58;14.73;;;7.22;;
61373;SDS011;47242;48.158;-1.586;2023-02-28T15:56:33;12.43;;;7.10;;
61373;SDS011;47242;48.158;-1.586;2023-02-28T15:59:14;17.10;;;7.85;;
61373;SDS011;47242;48.158;-1.586;2023-02-28T16:01:46;15.75;;;8.10;;
61373;SDS011;47242;48.158;-1.586;2023-02-28T16:04:16;15.23;;;8.48;;
61373;SDS011;47242;48.158;-1.586;2023-02-28T16:06:44;9.07;;;6.97;;
61373;SDS011;47242;48.158;-1.586;2023-02-28T16:09:14;13.07;;;8.60;;
61373;SDS011;47242;48.158;-1.586;2023-02-28T16:11:45;14.13;;;8.48;;
61373;SDS011;47242;48.158;-1.586;2023-02-28T16:14:20;15.60;;;8.40;;
61373;SDS011;47242;48.158;-1.586;2023-02-28T16:16:52;15.48;;;9.70;;
61373;SDS011;47242;48.158;-1.586;2023-02-28T16:19:19;17.02;;;10.65;;
61373;SDS011;47242;48.158;-1.586;2023-02-28T16:21:45;11.13;;;7.30;;
61373;SDS011;47242;48.158;-1.586;2023-02-28T16:24:11;16.52;;;8.35;;
61373;SDS011;47242;48.158;-1.586;2023-02-28T16:26:37;17.05;;;9.57;;
61373;SDS011;47242;48.158;-1.586;2023-02-28T16:29:11;14.07;;;9.48;;
61373;SDS011;47242;48.158;-1.586;2023-02-28T16:31:43;14.35;;;9.57;;
61373;SDS011;47242;48.158;-1.586;2023-02-28T16:34:09;17.60;;;10.63;;
61373;SDS011;47242;48.158;-1.586;2023-02-28T16:36:35;19.98;;;10.20;;
61373;SDS011;47242;48.158;-1.586;2023-02-28T16:39:01;17.45;;;9.95;;
61373;SDS011;47242;48.158;-1.586;2023-02-28T16:41:27;22.40;;;11.68;;
61373;SDS011;47242;48.158;-1.586;2023-02-28T16:43:55;21.40;;;13.02;;
61373;SDS011;47242;48.158;-1.586;2023-02-28T16:46:24;19.77;;;10.27;;
61373;SDS011;47242;48.158;-1.586;2023-02-28T16:48:59;19.38;;;11.07;;
61373;SDS011;47242;48.158;-1.586;2023-02-28T16:51:24;18.27;;;10.30;;
61373;SDS011;47242;48.158;-1.586;2023-02-28T16:53:50;16.55;;;9.07;;
61373;SDS011;47242;48.158;-1.586;2023-02-28T16:56:20;17.70;;;10.23;;
61373;SDS011;47242;48.158;-1.586;2023-02-28T16:58:48;15.27;;;10.00;;
61373;SDS011;47242;48.158;-1.586;2023-02-28T17:01:16;18.75;;;12.05;;
61373;SDS011;47242;48.158;-1.586;2023-02-28T17:03:46;17.65;;;9.95;;
61373;SDS011;47242;48.158;-1.586;2023-02-28T17:06:17;21.05;;;11.73;;
61373;SDS011;47242;48.158;-1.586;2023-02-28T17:08:53;19.48;;;11.15;;
61373;SDS011;47242;48.158;-1.586;2023-02-28T17:11:19;20.13;;;9.52;;
61373;SDS011;47242;48.158;-1.586;2023-02-28T17:13:46;24.23;;;11.80;;
61373;SDS011;47242;48.158;-1.586;2023-02-28T17:16:23;23.67;;;13.95;;
61373;SDS011;47242;48.158;-1.586;2023-02-28T17:21:19;20.90;;;10.50;;
61373;SDS011;47242;48.158;-1.586;2023-02-28T17:23:45;21.77;;;10.85;;
61373;SDS011;47242;48.158;-1.586;2023-02-28T17:26:20;20.30;;;11.65;;
61373;SDS011;47242;48.158;-1.586;2023-02-28T17:28:47;17.33;;;11.00;;
61373;SDS011;47242;48.158;-1.586;2023-02-28T17:31:13;20.20;;;11.48;;
61373;SDS011;47242;48.158;-1.586;2023-02-28T17:33:39;21.50;;;12.93;;
61373;SDS011;47242;48.158;-1.586;2023-02-28T17:36:04;22.13;;;11.60;;
61373;SDS011;47242;48.158;-1.586;2023-02-28T17:38:31;23.17;;;13.02;;
61373;SDS011;47242;48.158;-1.586;2023-02-28T17:40:56;21.30;;;13.15;;
61373;SDS011;47242;48.158;-1.586;2023-02-28T17:43:23;20.23;;;11.18;;
61373;SDS011;47242;48.158;-1.586;2023-02-28T17:45:50;27.08;;;15.82;;
61373;SDS011;47242;48.158;-1.586;2023-02-28T17:48:16;77.45;;;41.42;;
61373;SDS011;47242;48.158;-1.586;2023-02-28T17:50:42;24.83;;;16.85;;
61373;SDS011;47242;48.158;-1.586;2023-02-28T17:53:07;24.23;;;13.10;;
61373;SDS011;47242;48.158;-1.586;2023-02-28T17:55:33;23.05;;;13.07;;
61373;SDS011;47242;48.158;-1.586;2023-02-28T17:57:59;24.80;;;13.68;;
61373;SDS011;47242;48.158;-1.586;2023-02-28T18:00:25;34.63;;;15.45;;
61373;SDS011;47242;48.158;-1.586;2023-02-28T18:02:51;36.47;;;18.20;;
61373;SDS011;47242;48.158;-1.586;2023-02-28T18:05:17;36.03;;;17.38;;
61373;SDS011;47242;48.158;-1.586;2023-02-28T18:07:43;41.80;;;18.77;;
61373;SDS011;47242;48.158;-1.586;2023-02-28T18:10:11;30.73;;;16.42;;
61373;SDS011;47242;48.158;-1.586;2023-02-28T18:12:44;30.15;;;15.30;;
61373;SDS011;47242;48.158;-1.586;2023-02-28T18:15:14;26.88;;;13.90;;
61373;SDS011;47242;48.158;-1.586;2023-02-28T18:17:41;27.27;;;14.88;;
61373;SDS011;47242;48.158;-1.586;2023-02-28T18:20:07;23.40;;;11.52;;
61373;SDS011;47242;48.158;-1.586;2023-02-28T18:22:34;22.45;;;12.80;;
61373;SDS011;47242;48.158;-1.586;2023-02-28T18:25:01;21.02;;;12.23;;
61373;SDS011;47242;48.158;-1.586;2023-02-28T18:27:27;33.55;;;16.13;;
61373;SDS011;47242;48.158;-1.586;2023-02-28T18:29:56;23.75;;;12.93;;
61373;SDS011;47242;48.158;-1.586;2023-02-28T18:32:21;31.92;;;16.10;;
61373;SDS011;47242;48.158;-1.586;2023-02-28T18:34:47;31.48;;;15.88;;
61373;SDS011;47242;48.158;-1.586;2023-02-28T18:37:13;25.30;;;13.52;;
61373;SDS011;47242;48.158;-1.586;2023-02-28T18:39:40;25.83;;;12.75;;
61373;SDS011;47242;48.158;-1.586;2023-02-28T18:42:06;26.75;;;15.02;;
61373;SDS011;47242;48.158;-1.586;2023-02-28T18:44:36;24.90;;;13.75;;
61373;SDS011;47242;48.158;-1.586;2023-02-28T18:47:02;27.42;;;15.75;;
61373;SDS011;47242;48.158;-1.586;2023-02-28T18:49:29;28.30;;;17.02;;
61373;SDS011;47242;48.158;-1.586;2023-02-28T18:51:57;21.60;;;12.52;;
61373;SDS011;47242;48.158;-1.586;2023-02-28T18:54:23;34.47;;;18.92;;
61373;SDS011;47242;48.158;-1.586;2023-02-28T18:56:49;44.80;;;24.92;;
61373;SDS011;47242;48.158;-1.586;2023-02-28T18:59:18;32.22;;;16.92;;
61373;SDS011;47242;48.158;-1.586;2023-02-28T19:01:46;24.60;;;14.27;;
61373;SDS011;47242;48.158;-1.586;2023-02-28T19:04:13;27.52;;;15.57;;
61373;SDS011;47242;48.158;-1.586;2023-02-28T19:06:39;23.90;;;14.35;;
61373;SDS011;47242;48.158;-1.586;2023-02-28T19:09:06;26.38;;;14.63;;
61373;SDS011;47242;48.158;-1.586;2023-02-28T19:11:32;30.33;;;14.27;;
61373;SDS011;47242;48.158;-1.586;2023-02-28T19:13:58;40.92;;;19.95;;
61373;SDS011;47242;48.158;-1.586;2023-02-28T19:16:25;26.23;;;15.40;;
61373;SDS011;47242;48.158;-1.586;2023-02-28T19:18:51;27.95;;;15.35;;
61373;SDS011;47242;48.158;-1.586;2023-02-28T19:21:19;27.90;;;14.95;;
61373;SDS011;47242;48.158;-1.586;2023-02-28T19:23:46;25.83;;;13.68;;
61373;SDS011;47242;48.158;-1.586;2023-02-28T19:26:16;21.13;;;12.10;;
61373;SDS011;47242;48.158;-1.586;2023-02-28T19:28:46;22.88;;;12.77;;
61373;SDS011;47242;48.158;-1.586;2023-02-28T19:31:17;24.50;;;11.30;;
61373;SDS011;47242;48.158;-1.586;2023-02-28T19:33:47;20.75;;;10.52;;
61373;SDS011;47242;48.158;-1.586;2023-02-28T19:36:13;21.20;;;11.60;;
61373;SDS011;47242;48.158;-1.586;2023-02-28T19:38:40;18.55;;;9.43;;
61373;SDS011;47242;48.158;-1.586;2023-02-28T19:41:11;18.00;;;9.70;;
61373;SDS011;47242;48.158;-1.586;2023-02-28T19:43:41;16.33;;;8.35;;
61373;SDS011;47242;48.158;-1.586;2023-02-28T19:46:07;21.20;;;9.50;;
61373;SDS011;47242;48.158;-1.586;2023-02-28T19:48:34;17.65;;;10.02;;
61373;SDS011;47242;48.158;-1.586;2023-02-28T19:51:04;18.73;;;9.75;;
61373;SDS011;47242;48.158;-1.586;2023-02-28T19:53:33;16.42;;;8.82;;
61373;SDS011;47242;48.158;-1.586;2023-02-28T19:55:59;15.27;;;8.20;;
61373;SDS011;47242;48.158;-1.586;2023-02-28T19:58:27;10.25;;;6.60;;
61373;SDS011;47242;48.158;-1.586;2023-02-28T20:00:52;13.57;;;7.68;;
61373;SDS011;47242;48.158;-1.586;2023-02-28T20:03:18;9.32;;;6.57;;
61373;SDS011;47242;48.158;-1.586;2023-02-28T20:05:44;7.70;;;5.95;;
61373;SDS011;47242;48.158;-1.586;2023-02-28T20:08:10;11.15;;;6.95;;
61373;SDS011;47242;48.158;-1.586;2023-02-28T20:10:37;13.77;;;7.13;;
61373;SDS011;47242;48.158;-1.586;2023-02-28T20:13:02;13.25;;;7.15;;
61373;SDS011;47242;48.158;-1.586;2023-02-28T20:15:28;14.65;;;8.90;;
61373;SDS011;47242;48.158;-1.586;2023-02-28T20:17:57;14.45;;;9.50;;
61373;SDS011;47242;48.158;-1.586;2023-02-28T20:20:24;16.33;;;9.15;;
61373;SDS011;47242;48.158;-1.586;2023-02-28T20:22:53;18.95;;;7.65;;
61373;SDS011;47242;48.158;-1.586;2023-02-28T20:25:25;9.75;;;7.03;;
61373;SDS011;47242;48.158;-1.586;2023-02-28T20:27:51;11.10;;;6.95;;
61373;SDS011;47242;48.158;-1.586;2023-02-28T20:30:17;11.85;;;7.70;;
61373;SDS011;47242;48.158;-1.586;2023-02-28T20:32:49;16.80;;;7.38;;
61373;SDS011;47242;48.158;-1.586;2023-02-28T20:35:15;12.15;;;7.45;;
61373;SDS011;47242;48.158;-1.586;2023-02-28T20:37:40;11.82;;;7.45;;
61373;SDS011;47242;48.158;-1.586;2023-02-28T20:40:06;11.55;;;7.40;;
61373;SDS011;47242;48.158;-1.586;2023-02-28T20:42:34;12.57;;;6.30;;
61373;SDS011;47242;48.158;-1.586;2023-02-28T20:44:59;10.32;;;6.35;;
61373;SDS011;47242;48.158;-1.586;2023-02-28T20:47:25;11.57;;;6.72;;
61373;SDS011;47242;48.158;-1.586;2023-02-28T20:49:54;10.73;;;6.68;;
61373;SDS011;47242;48.158;-1.586;2023-02-28T20:52:20;14.00;;;10.07;;
61373;SDS011;47242;48.158;-1.586;2023-02-28T20:54:45;13.10;;;8.65;;
61373;SDS011;47242;48.158;-1.586;2023-02-28T20:57:11;10.60;;;7.15;;
61373;SDS011;47242;48.158;-1.586;2023-02-28T20:59:37;15.35;;;8.35;;
61373;SDS011;47242;48.158;-1.586;2023-02-28T21:02:04;13.80;;;8.68;;
61373;SDS011;47242;48.158;-1.586;2023-02-28T21:04:29;15.68;;;9.48;;
61373;SDS011;47242;48.158;-1.586;2023-02-28T21:06:58;18.63;;;10.77;;
61373;SDS011;47242;48.158;-1.586;2023-02-28T21:09:24;13.35;;;8.10;;
61373;SDS011;47242;48.158;-1.586;2023-02-28T21:11:51;21.42;;;12.00;;
61373;SDS011;47242;48.158;-1.586;2023-02-28T21:14:18;26.25;;;12.75;;
61373;SDS011;47242;48.158;-1.586;2023-02-28T21:16:44;17.65;;;8.82;;
61373;SDS011;47242;48.158;-1.586;2023-02-28T21:19:10;17.95;;;9.85;;
61373;SDS011;47242;48.158;-1.586;2023-02-28T21:21:38;17.40;;;10.63;;
61373;SDS011;47242;48.158;-1.586;2023-02-28T21:24:08;20.20;;;10.80;;
61373;SDS011;47242;48.158;-1.586;2023-02-28T21:26:35;17.52;;;10.00;;
61373;SDS011;47242;48.158;-1.586;2023-02-28T21:29:03;21.25;;;11.23;;
61373;SDS011;47242;48.158;-1.586;2023-02-28T21:31:30;20.38;;;10.57;;
61373;SDS011;47242;48.158;-1.586;2023-02-28T21:33:58;16.50;;;9.93;;
61373;SDS011;47242;48.158;-1.586;2023-02-28T21:36:26;20.80;;;12.15;;
61373;SDS011;47242;48.158;-1.586;2023-02-28T21:39:00;22.42;;;11.18;;
61373;SDS011;47242;48.158;-1.586;2023-02-28T21:41:31;16.80;;;10.82;;
61373;SDS011;47242;48.158;-1.586;2023-02-28T21:43:57;19.33;;;9.32;;
61373;SDS011;47242;48.158;-1.586;2023-02-28T21:46:26;22.75;;;12.02;;
61373;SDS011;47242;48.158;-1.586;2023-02-28T21:48:56;27.77;;;11.27;;
61373;SDS011;47242;48.158;-1.586;2023-02-28T21:51:26;20.52;;;12.65;;
61373;SDS011;47242;48.158;-1.586;2023-02-28T21:53:55;24.10;;;12.60;;
61373;SDS011;47242;48.158;-1.586;2023-02-28T21:56:23;19.40;;;10.70;;
61373;SDS011;47242;48.158;-1.586;2023-02-28T21:58:51;26.50;;;11.38;;
61373;SDS011;47242;48.158;-1.586;2023-02-28T22:01:24;26.05;;;12.15;;
61373;SDS011;47242;48.158;-1.586;2023-02-28T22:03:54;21.52;;;12.18;;
61373;SDS011;47242;48.158;-1.586;2023-02-28T22:06:24;31.40;;;16.13;;
61373;SDS011;47242;48.158;-1.586;2023-02-28T22:08:53;23.23;;;12.35;;
61373;SDS011;47242;48.158;-1.586;2023-02-28T22:11:20;23.77;;;11.77;;
61373;SDS011;47242;48.158;-1.586;2023-02-28T22:13:50;18.83;;;12.27;;
61373;SDS011;47242;48.158;-1.586;2023-02-28T22:16:18;30.77;;;14.38;;
61373;SDS011;47242;48.158;-1.586;2023-02-28T22:18:45;25.67;;;14.77;;